createdAt,value
2022-11-09T00:01:40.626Z,52.58
2022-11-09T00:04:27.783Z,52.67
2022-11-09T00:07:15.159Z,52.61
2022-11-09T00:10:02.519Z,52.64
2022-11-09T00:12:51.011Z,52.69
2022-11-09T00:15:37.845Z,52.75
2022-11-09T00:18:24.426Z,52.77
2022-11-09T00:21:14.403Z,52.78
2022-11-09T00:24:01.043Z,52.83
2022-11-09T00:26:48.306Z,52.87
2022-11-09T00:29:36.540Z,52.88
2022-11-09T00:32:27.625Z,52.80
2022-11-09T00:35:14.855Z,52.88
2022-11-09T00:38:01.996Z,52.97
2022-11-09T00:40:48.891Z,53.00
2022-11-09T00:43:36.660Z,53.03
2022-11-09T00:46:25.449Z,53.13
2022-11-09T00:49:12.596Z,53.15
2022-11-09T00:51:59.510Z,53.15
2022-11-09T00:54:47.010Z,53.18
2022-11-09T00:57:33.867Z,53.12
2022-11-09T01:00:23.517Z,53.10
2022-11-09T01:03:11.484Z,53.04
2022-11-09T01:06:00.660Z,52.96
2022-11-09T01:08:48.469Z,52.90
2022-11-09T01:11:36.316Z,53.00
2022-11-09T01:14:23.428Z,52.94
2022-11-09T01:17:10.527Z,52.87
2022-11-09T01:19:58.884Z,52.87
2022-11-09T01:22:46.207Z,52.85
2022-11-09T01:25:33.002Z,52.91
2022-11-09T01:28:20.656Z,52.89
2022-11-09T01:31:12.120Z,52.86
2022-11-09T01:33:58.932Z,52.85
2022-11-09T01:36:51.293Z,52.84
2022-11-09T01:39:41.959Z,52.79
2022-11-09T01:42:30.319Z,52.80
2022-11-09T01:45:26.717Z,52.81
2022-11-09T01:48:20.265Z,52.71
2022-11-09T01:51:14.081Z,52.81
2022-11-09T01:54:10.067Z,52.86
2022-11-09T01:57:03.921Z,52.90
2022-11-09T01:59:57.891Z,52.93
2022-11-09T02:02:49.196Z,52.86
2022-11-09T02:05:39.182Z,52.89
2022-11-09T02:08:27.224Z,52.92
2022-11-09T02:11:18.838Z,52.88
2022-11-09T02:14:06.777Z,52.72
2022-11-09T02:16:53.944Z,52.79
2022-11-09T02:19:40.709Z,52.87
2022-11-09T02:22:29.211Z,52.86
2022-11-09T02:25:17.232Z,52.80
2022-11-09T02:28:04.852Z,52.90
2022-11-09T02:30:54.642Z,52.84
2022-11-09T02:33:45.312Z,52.75
2022-11-09T02:36:32.240Z,52.68
2022-11-09T02:39:24.775Z,52.59
2022-11-09T02:42:21.151Z,52.42
2022-11-09T02:45:11.076Z,52.41
2022-11-09T02:47:59.056Z,52.32
2022-11-09T02:50:46.166Z,52.29
2022-11-09T02:53:33.040Z,52.34
2022-11-09T02:56:22.459Z,52.29
2022-11-09T02:59:09.255Z,52.45
2022-11-09T03:01:56.471Z,52.39
2022-11-09T03:04:43.380Z,52.41
2022-11-09T03:07:30.709Z,52.45
2022-11-09T03:10:18.134Z,52.44
2022-11-09T03:13:08.007Z,52.48
2022-11-09T03:15:54.814Z,52.51
2022-11-09T03:18:42.144Z,52.52
2022-11-09T03:21:30.100Z,52.45
2022-11-09T03:24:17.206Z,52.61
2022-11-09T03:27:03.904Z,52.63
2022-11-09T03:29:52.456Z,52.64
2022-11-09T03:32:40.168Z,52.61
2022-11-09T03:35:28.099Z,52.63
2022-11-09T03:38:15.359Z,52.83
2022-11-09T03:41:03.397Z,52.91
2022-11-09T03:43:51.327Z,53.08
2022-11-09T03:46:40.101Z,53.07
2022-11-09T03:49:27.088Z,53.02
2022-11-09T03:52:14.217Z,53.18
2022-11-09T03:55:01.155Z,53.20
2022-11-09T03:57:49.159Z,53.25
2022-11-09T04:00:36.889Z,53.32
2022-11-09T04:03:25.854Z,53.36
2022-11-09T04:06:12.544Z,53.44
2022-11-09T04:08:59.727Z,53.47
2022-11-09T04:11:46.533Z,53.49
2022-11-09T04:14:33.675Z,53.51
2022-11-09T04:17:20.545Z,53.60
2022-11-09T04:20:10.427Z,53.66
2022-11-09T04:22:57.834Z,53.75
2022-11-09T04:25:44.873Z,53.70
2022-11-09T04:28:38.018Z,53.70
2022-11-09T04:31:28.209Z,53.69
2022-11-09T04:34:17.057Z,53.65
2022-11-09T04:37:05.896Z,53.69
2022-11-09T04:39:53.022Z,53.80
2022-11-09T04:42:40.547Z,53.83
2022-11-09T04:45:27.676Z,53.88
2022-11-09T04:48:14.835Z,53.92
2022-11-09T04:51:02.356Z,53.98
2022-11-09T04:53:50.964Z,54.06
2022-11-09T04:56:37.720Z,54.09
2022-11-09T04:59:25.061Z,54.10
2022-11-09T05:02:11.846Z,54.29
2022-11-09T05:04:59.164Z,54.35
2022-11-09T05:07:45.861Z,54.57
2022-11-09T05:10:34.720Z,54.75
2022-11-09T05:13:21.956Z,55.06
2022-11-09T05:16:09.443Z,55.14
2022-11-09T05:18:56.338Z,55.18
2022-11-09T05:21:43.549Z,55.24
2022-11-09T05:24:29.404Z,55.38
2022-11-09T05:27:17.765Z,55.61
2022-11-09T05:30:05.501Z,55.96
2022-11-09T05:32:52.716Z,55.88
2022-11-09T05:35:39.767Z,56.11
2022-11-09T05:38:27.141Z,56.33
2022-11-09T05:41:14.364Z,56.37
2022-11-09T05:44:02.840Z,56.30
2022-11-09T05:46:50.249Z,56.47
2022-11-09T05:49:37.632Z,56.55
2022-11-09T05:52:24.340Z,56.62
2022-11-09T05:55:11.166Z,56.79
2022-11-09T05:57:57.954Z,56.78
2022-11-09T06:00:46.220Z,56.78
2022-11-09T06:03:34.063Z,56.87
2022-11-09T06:06:21.022Z,56.92
2022-11-09T06:09:08.433Z,56.92
2022-11-09T06:11:55.156Z,57.23
2022-11-09T06:14:42.250Z,57.54
2022-11-09T06:17:30.275Z,57.88
2022-11-09T06:20:18.952Z,57.84
2022-11-09T06:23:05.765Z,58.09
2022-11-09T06:25:54.096Z,58.29
2022-11-09T06:28:42.344Z,58.29
2022-11-09T06:31:30.226Z,58.19
2022-11-09T06:34:18.789Z,58.19
2022-11-09T06:37:06.152Z,58.28
2022-11-09T06:39:52.984Z,58.16
2022-11-09T06:42:40.050Z,58.61
2022-11-09T06:45:28.542Z,58.73
2022-11-09T06:48:15.768Z,59.36
2022-11-09T06:51:05.145Z,59.72
2022-11-09T06:53:52.470Z,59.72
2022-11-09T06:56:39.153Z,59.33
2022-11-09T06:59:26.521Z,59.50
2022-11-09T07:02:17.668Z,58.76
2022-11-09T07:05:05.553Z,58.86
2022-11-09T07:07:53.958Z,58.52
2022-11-09T07:10:41.172Z,58.98
2022-11-09T07:13:28.357Z,58.63
2022-11-09T07:16:17.335Z,58.27
2022-11-09T07:19:04.194Z,58.30
2022-11-09T07:21:51.016Z,58.13
2022-11-09T07:24:39.242Z,57.96
2022-11-09T07:27:28.213Z,58.01
2022-11-09T07:30:15.617Z,58.14
2022-11-09T07:33:09.065Z,58.06
2022-11-09T07:35:58.650Z,58.09
2022-11-09T07:38:45.762Z,58.15
2022-11-09T07:41:34.994Z,58.05
2022-11-09T07:44:22.654Z,58.27
2022-11-09T07:47:11.305Z,58.26
2022-11-09T07:50:00.548Z,58.29
2022-11-09T07:52:47.399Z,58.19
2022-11-09T07:55:35.580Z,58.22
2022-11-09T07:58:23.510Z,58.21
2022-11-09T08:01:11.357Z,58.13
2022-11-09T08:03:58.499Z,58.12
2022-11-09T08:06:45.722Z,57.96
2022-11-09T08:09:32.900Z,58.03
2022-11-09T08:12:19.745Z,57.93
2022-11-09T08:15:09.365Z,57.95
2022-11-09T08:18:00.862Z,58.42
2022-11-09T08:20:48.619Z,58.46
2022-11-09T08:23:35.998Z,58.33
2022-11-09T08:26:22.911Z,58.47
2022-11-09T08:29:09.917Z,58.44
2022-11-09T08:31:58.468Z,58.47
2022-11-09T08:34:48.549Z,58.58
2022-11-09T08:37:35.870Z,58.70
2022-11-09T08:40:25.750Z,58.42
2022-11-09T08:43:13.391Z,58.64
2022-11-09T08:46:00.595Z,58.49
2022-11-09T08:48:49.023Z,58.61
2022-11-09T08:51:35.885Z,58.70
2022-11-09T08:54:22.952Z,58.71
2022-11-09T08:57:10.545Z,58.58
2022-11-09T08:59:58.032Z,58.42
2022-11-09T09:02:44.869Z,58.46
2022-11-09T09:05:33.665Z,58.66
2022-11-09T09:08:23.242Z,58.59
2022-11-09T09:11:10.786Z,58.40
2022-11-09T09:13:57.918Z,58.32
2022-11-09T09:16:45.338Z,58.21
2022-11-09T09:19:32.345Z,58.06
2022-11-09T09:22:21.305Z,58.26
2022-11-09T09:25:09.466Z,58.34
2022-11-09T09:27:56.457Z,58.49
2022-11-09T09:30:43.398Z,58.37
2022-11-09T09:33:30.571Z,58.19
2022-11-09T09:36:18.745Z,58.17
2022-11-09T09:39:07.306Z,58.16
2022-11-09T09:41:57.286Z,58.28
2022-11-09T09:44:50.620Z,58.17
2022-11-09T09:47:51.059Z,58.28
2022-11-09T09:50:45.164Z,58.02
2022-11-09T09:53:35.150Z,58.14
2022-11-09T09:56:26.439Z,58.33
2022-11-09T09:59:21.440Z,58.21
2022-11-09T10:02:18.989Z,58.08
2022-11-09T10:05:10.093Z,57.76
2022-11-09T10:08:05.524Z,57.71
2022-11-09T10:11:05.726Z,57.16
2022-11-09T10:14:11.679Z,56.92
2022-11-09T10:17:07.888Z,56.67
2022-11-09T10:20:05.308Z,57.50
2022-11-09T10:23:05.090Z,56.44
2022-11-09T10:26:06.095Z,56.69
2022-11-09T10:29:15.598Z,56.14
2022-11-09T10:32:11.488Z,56.34
2022-11-09T10:35:04.810Z,56.00
2022-11-09T10:37:55.020Z,56.29
2022-11-09T10:40:46.653Z,56.25
2022-11-09T10:43:52.002Z,56.29
2022-11-09T10:47:08.719Z,56.57
2022-11-09T10:50:23.844Z,55.50
2022-11-09T10:57:04.911Z,56.02
2022-11-09T11:00:17.396Z,55.31
2022-11-09T11:03:25.470Z,55.50
2022-11-09T11:06:31.726Z,55.69
2022-11-09T11:09:37.377Z,56.75
2022-11-09T11:12:42.912Z,56.23
2022-11-09T11:15:48.963Z,56.00
2022-11-09T11:18:56.947Z,55.68
2022-11-09T11:22:23.990Z,55.32
2022-11-09T11:25:29.741Z,54.35
2022-11-09T11:28:43.856Z,55.64
2022-11-09T11:31:50.015Z,55.12
2022-11-09T11:35:01.312Z,54.64
2022-11-09T11:38:22.662Z,54.91
2022-11-09T11:41:47.929Z,53.87
2022-11-09T11:45:38.558Z,53.79
2022-11-09T11:49:11.601Z,54.21
2022-11-09T11:52:28.234Z,53.87
2022-11-09T11:55:52.862Z,54.60
2022-11-09T11:59:30.355Z,53.33
2022-11-09T12:03:08.303Z,53.71
2022-11-09T12:06:32.269Z,52.73
2022-11-09T12:10:04.198Z,52.89
2022-11-09T12:13:20.997Z,52.70
2022-11-09T12:16:34.313Z,53.42
2022-11-09T12:19:52.708Z,53.15
2022-11-09T12:23:27.151Z,52.83
2022-11-09T12:27:04.630Z,51.99
2022-11-09T12:30:17.587Z,52.35
2022-11-09T12:33:33.989Z,53.30
2022-11-09T12:36:47.424Z,54.08
2022-11-09T12:39:55.282Z,52.85
2022-11-09T12:43:06.801Z,53.51
2022-11-09T12:46:14.393Z,52.51
2022-11-09T12:49:33.540Z,53.37
2022-11-09T12:52:39.669Z,52.21
2022-11-09T12:55:51.452Z,53.45
2022-11-09T12:59:23.824Z,51.85
2022-11-09T13:02:32.318Z,50.19
2022-11-09T13:05:39.506Z,52.71
2022-11-09T13:09:01.190Z,53.12
2022-11-09T13:12:19.006Z,50.31
2022-11-09T13:15:28.658Z,51.04
2022-11-09T13:18:53.756Z,52.52
2022-11-09T13:21:59.133Z,50.27
2022-11-09T13:25:25.803Z,52.05
2022-11-09T13:29:11.451Z,51.12
2022-11-09T13:32:28.898Z,50.67
2022-11-09T13:36:14.429Z,51.37
2022-11-09T13:39:32.225Z,50.50
2022-11-09T13:42:38.037Z,50.84
2022-11-09T13:45:46.255Z,52.09
2022-11-09T13:48:54.276Z,52.44
2022-11-09T13:51:59.652Z,52.62
2022-11-09T13:55:15.510Z,52.63
2022-11-09T13:58:27.575Z,53.21
2022-11-09T14:01:38.396Z,52.70
2022-11-09T14:04:46.444Z,52.94
2022-11-09T14:07:51.688Z,52.58
2022-11-09T14:11:15.036Z,53.12
2022-11-09T14:14:54.725Z,52.13
2022-11-09T14:18:13.621Z,52.21
2022-11-09T14:21:41.377Z,52.29
2022-11-09T14:27:58.027Z,52.95
2022-11-09T14:31:03.375Z,53.36
2022-11-09T14:34:16.374Z,53.13
2022-11-09T14:37:23.377Z,53.00
2022-11-09T14:40:31.365Z,53.33
2022-11-09T14:43:41.740Z,53.31
2022-11-09T14:46:53.914Z,53.48
2022-11-09T14:50:00.349Z,53.56
2022-11-09T14:53:07.730Z,53.58
2022-11-09T14:56:17.462Z,53.66
2022-11-09T14:59:32.614Z,53.51
2022-11-09T15:02:39.336Z,53.41
2022-11-09T15:05:45.072Z,53.54
2022-11-09T15:08:58.342Z,53.86
2022-11-09T15:12:04.095Z,53.60
2022-11-09T15:15:21.430Z,53.92
2022-11-09T15:18:33.875Z,54.06
2022-11-09T15:21:39.699Z,53.92
2022-11-09T15:24:49.281Z,53.99
2022-11-09T15:28:20.530Z,54.22
2022-11-09T15:31:27.959Z,54.60
2022-11-09T15:34:38.553Z,54.44
2022-11-09T15:37:53.648Z,54.91
2022-11-09T15:41:01.129Z,54.84
2022-11-09T15:44:07.384Z,54.39
2022-11-09T15:47:23.001Z,54.32
2022-11-09T15:50:29.088Z,54.53
2022-11-09T15:53:34.731Z,54.15
2022-11-09T15:56:42.036Z,54.38
2022-11-09T15:59:48.371Z,54.44
2022-11-09T16:02:53.719Z,54.68
2022-11-09T16:05:59.413Z,54.76
2022-11-09T16:09:05.349Z,54.77
2022-11-09T16:12:12.141Z,54.64
2022-11-09T16:15:17.692Z,54.56
2022-11-09T16:18:26.174Z,54.61
2022-11-09T16:21:31.966Z,54.66
2022-11-09T16:24:37.327Z,54.64
2022-11-09T16:27:50.678Z,54.63
2022-11-09T16:30:57.174Z,54.88
2022-11-09T16:34:02.694Z,54.75
2022-11-09T16:37:08.150Z,54.77
2022-11-09T16:40:17.432Z,54.75
2022-11-09T16:43:24.492Z,54.84
2022-11-09T16:46:30.588Z,54.76
2022-11-09T16:49:36.088Z,54.82
2022-11-09T16:52:41.351Z,54.88
2022-11-09T16:55:46.656Z,54.99
2022-11-09T16:58:53.480Z,55.01
2022-11-09T17:02:00.684Z,55.18
2022-11-09T17:05:07.521Z,55.29
2022-11-09T17:08:13.767Z,55.35
2022-11-09T17:11:20.526Z,55.45
2022-11-09T17:14:29.237Z,55.96
2022-11-09T17:17:35.396Z,55.65
2022-11-09T17:20:44.654Z,55.49
2022-11-09T17:23:50.977Z,55.73
2022-11-09T17:26:56.404Z,55.31
2022-11-09T17:30:03.275Z,55.33
2022-11-09T17:33:09.372Z,55.49
2022-11-09T17:36:17.046Z,55.32
2022-11-09T17:39:28.105Z,55.27
2022-11-09T17:42:34.966Z,55.29
2022-11-09T17:45:42.028Z,55.31
2022-11-09T17:48:49.613Z,55.42
2022-11-09T17:51:55.559Z,55.38
2022-11-09T17:55:01.316Z,55.42
2022-11-09T17:58:06.959Z,55.47
2022-11-09T18:01:15.874Z,55.52
2022-11-09T18:04:21.805Z,55.68
2022-11-09T18:07:27.093Z,55.57
2022-11-09T18:10:32.627Z,55.61
2022-11-09T18:13:39.077Z,55.75
2022-11-09T18:16:46.097Z,55.86
2022-11-09T18:19:51.719Z,55.70
2022-11-09T18:22:57.243Z,55.71
2022-11-09T18:26:03.707Z,55.79
2022-11-09T18:29:12.181Z,55.84
2022-11-09T18:32:19.243Z,55.90
2022-11-09T18:35:25.040Z,56.04
2022-11-09T18:38:30.898Z,55.93
2022-11-09T18:41:36.590Z,55.98
2022-11-09T18:44:42.226Z,55.95
2022-11-09T18:47:50.793Z,55.88
2022-11-09T18:50:58.279Z,55.95
2022-11-09T18:54:04.024Z,55.87
2022-11-09T18:57:13.729Z,55.80
2022-11-09T19:00:21.963Z,55.83
2022-11-09T19:03:29.385Z,55.83
2022-11-09T19:06:36.801Z,55.94
2022-11-09T19:09:43.033Z,56.00
2022-11-09T19:12:48.468Z,56.01
2022-11-09T19:15:58.324Z,56.09
2022-11-09T19:19:06.762Z,56.24
2022-11-09T19:22:19.268Z,56.27
2022-11-09T19:25:25.390Z,56.30
2022-11-09T19:28:31.263Z,56.16
2022-11-09T19:31:38.426Z,56.16
2022-11-09T19:34:46.731Z,56.21
2022-11-09T19:37:52.369Z,56.33
2022-11-09T19:40:58.317Z,56.31
2022-11-09T19:44:03.607Z,56.40
2022-11-09T19:47:09.153Z,56.37
2022-11-09T19:50:16.437Z,56.30
2022-11-09T19:53:21.772Z,56.22
2022-11-09T19:56:29.357Z,56.17
2022-11-09T19:59:36.435Z,56.22
2022-11-09T20:02:44.492Z,56.46
2022-11-09T20:05:56.140Z,56.57
2022-11-09T20:09:01.754Z,56.74
2022-11-09T20:12:39.832Z,56.63
2022-11-09T20:15:45.568Z,56.62
2022-11-09T20:18:51.332Z,56.90
2022-11-09T20:21:58.183Z,56.69
2022-11-09T20:25:04.765Z,56.66
2022-11-09T20:28:10.467Z,56.64
2022-11-09T20:31:17.611Z,56.75
2022-11-09T20:34:23.762Z,57.25
2022-11-09T20:37:31.044Z,57.20
2022-11-09T20:40:36.413Z,57.58
2022-11-09T20:43:42.041Z,57.07
2022-11-09T20:46:47.754Z,56.95
2022-11-09T20:49:53.171Z,56.97
2022-11-09T20:53:00.585Z,57.13
2022-11-09T20:56:06.613Z,56.93
2022-11-09T20:59:12.156Z,56.70
2022-11-09T21:02:18.425Z,56.67
2022-11-09T21:05:24.252Z,56.81
2022-11-09T21:08:33.056Z,56.97
2022-11-09T21:12:00.498Z,56.86
2022-11-09T21:15:07.620Z,56.84
2022-11-09T21:18:13.532Z,56.78
2022-11-09T21:21:21.018Z,57.04
2022-11-09T21:24:45.828Z,57.11
2022-11-09T21:28:09.037Z,57.01
2022-11-09T21:31:15.432Z,57.00
2022-11-09T21:34:21.134Z,56.94
2022-11-09T21:37:26.669Z,57.10
2022-11-09T21:40:34.100Z,57.53
2022-11-09T21:43:39.792Z,57.50
2022-11-09T21:46:45.282Z,57.22
2022-11-09T21:49:50.597Z,57.24
2022-11-09T21:52:55.924Z,57.34
2022-11-09T21:56:02.797Z,57.60
2022-11-09T21:59:08.832Z,57.52
2022-11-09T22:02:14.358Z,57.36
2022-11-09T22:05:22.952Z,57.19
2022-11-09T22:08:29.129Z,57.21
2022-11-09T22:11:53.681Z,57.40
2022-11-09T22:15:17.068Z,57.39
2022-11-09T22:18:36.692Z,57.52
2022-11-09T22:21:43.017Z,57.51
2022-11-09T22:24:48.862Z,57.62
2022-11-09T22:27:56.834Z,57.70
2022-11-09T22:31:02.885Z,58.08
2022-11-09T22:34:15.687Z,57.98
2022-11-09T22:37:22.203Z,58.31
2022-11-09T22:40:27.724Z,58.21
2022-11-09T22:43:35.657Z,58.23
2022-11-09T22:46:41.386Z,58.06
2022-11-09T22:49:46.910Z,58.02
2022-11-09T22:52:54.133Z,58.02
2022-11-09T22:56:01.252Z,58.06
2022-11-09T22:59:08.886Z,58.03
2022-11-09T23:02:14.535Z,57.92
2022-11-09T23:05:20.096Z,58.25
2022-11-09T23:08:25.420Z,58.17
2022-11-09T23:11:30.858Z,58.17
2022-11-09T23:14:55.116Z,58.83
2022-11-09T23:18:19.070Z,58.52
2022-11-09T23:21:27.711Z,58.95
2022-11-09T23:24:50.629Z,58.76
2022-11-09T23:27:56.316Z,58.74
2022-11-09T23:31:06.257Z,58.63
2022-11-09T23:34:11.674Z,59.07
2022-11-09T23:37:17.131Z,58.59
2022-11-09T23:40:22.746Z,58.92
2022-11-09T23:43:28.530Z,58.72
2022-11-09T23:46:35.459Z,59.50
2022-11-09T23:49:41.504Z,59.25
2022-11-09T23:52:47.550Z,58.57
2022-11-09T23:55:53.079Z,58.64
2022-11-09T23:58:58.438Z,58.53
